Charter Quote
Worldwide +1-877-727-2538 Call
Select Language Lang
SAFETY RELIABILITY EXPERIENCE

Private Jet Charter Services - Chifeng Airport (ZBCF)

Paramount Business Jets offers private jet charter flights and luxury airliner charters to and from Chifeng Airport.

AIRPORT INFORMATION
ICAOZBCF
IATACIF
LOCATIONChifeng, China
FACILITY TYPEAIRPORT

At Paramount Business Jets you can hire chartered private jets to and from Chifeng Airport with as little as 4 hours of notice. All flights booked via Paramount Business Jets are operated by certified direct air carriers that meet and exceed the FAA part 135 and 121 protocol or a foreign equivalent safety authority. Furthermore, Paramount Business Jets subscribes to ARGUS for their third party safety checks of operators, aircraft, and crews prior each and every flight to and from Chifeng Airport and worldwide.

  • Quote a trip using Chifeng Airport or call us 24/7 - 365 days a year at +1-877-727-2538.
Questions? Call +1-877-727-2538

METAR Weather Data at Chifeng Airport, ZBCF, CIF

STATIONZBCF
OBSERVEDThu Aug 14, 09:00 UTC
NOWThu Nov 14, 16:23 UTC
AGE46039:23 hr ago
WINDSE at 16 mph
VISIBILITY16 miles
CLOUDSpartly cloudy
TEMP72°F (22°C)
DEWPT50°F (10°C)
HUMIDITY47%
BAROMETER1007 hPa (29.74 in Hg)
METARZBCF 140900Z 14007MPS 9999 FEW040 22/10 Q1007 NOSIG

Call us on +1-877-727-2538 (24 Hours), Check our Pricing, or Get a Quick Quote.

Find Airports Near any Location

Processing
...